createdAt,value
2022-09-21T00:01:31.357Z,99.90
2022-09-21T00:04:03.530Z,99.90
2022-09-21T00:06:33.313Z,99.90
2022-09-21T00:09:02.798Z,99.90
2022-09-21T00:11:33.076Z,99.90
2022-09-21T00:14:07.338Z,99.90
2022-09-21T00:16:35.098Z,99.90
2022-09-21T00:19:02.337Z,99.90
2022-09-21T00:21:32.029Z,99.90
2022-09-21T00:23:59.629Z,99.90
2022-09-21T00:26:30.099Z,99.90
2022-09-21T00:29:00.111Z,99.90
2022-09-21T00:31:30.630Z,99.90
2022-09-21T00:34:01.096Z,99.90
2022-09-21T00:36:28.671Z,99.90
2022-09-21T00:38:58.186Z,99.90
2022-09-21T00:41:26.976Z,99.90
2022-09-21T00:44:18.599Z,99.90
2022-09-21T00:46:49.675Z,99.90
2022-09-21T00:49:18.431Z,99.90
2022-09-21T00:51:46.288Z,99.90
2022-09-21T00:54:27.609Z,99.90
2022-09-21T00:56:58.653Z,99.90
2022-09-21T00:59:30.089Z,99.90
2022-09-21T01:02:00.859Z,99.90
2022-09-21T01:04:28.514Z,99.90
2022-09-21T01:06:59.041Z,99.90
2022-09-21T01:09:29.181Z,99.90
2022-09-21T01:12:05.469Z,99.90
2022-09-21T01:14:57.127Z,99.90
2022-09-21T01:17:49.069Z,99.90
2022-09-21T01:20:40.102Z,99.90
2022-09-21T01:23:44.786Z,99.90
2022-09-21T01:26:32.906Z,99.90
2022-09-21T01:29:08.771Z,99.90
2022-09-21T01:31:46.050Z,99.90
2022-09-21T01:34:24.298Z,99.90
2022-09-21T01:36:55.091Z,99.90
2022-09-21T01:39:23.444Z,99.90
2022-09-21T01:41:52.644Z,99.90
2022-09-21T01:44:23.834Z,99.90
2022-09-21T01:46:51.700Z,99.90
2022-09-21T01:49:34.824Z,99.90
2022-09-21T01:52:12.808Z,99.90
2022-09-21T01:54:50.086Z,99.90
2022-09-21T01:57:33.825Z,99.90
2022-09-21T02:00:01.622Z,99.90
2022-09-21T02:02:45.682Z,99.90
2022-09-21T02:05:13.831Z,99.90
2022-09-21T02:07:41.838Z,99.90
2022-09-21T02:10:17.109Z,99.90
2022-09-21T02:12:44.131Z,99.90
2022-09-21T02:15:11.320Z,99.90
2022-09-21T02:18:05.573Z,99.90
2022-09-21T02:20:40.923Z,99.90
2022-09-21T02:23:37.806Z,99.90
2022-09-21T02:26:27.169Z,99.90
2022-09-21T02:29:36.157Z,99.90
2022-09-21T02:32:15.577Z,99.90
2022-09-21T02:34:52.669Z,99.90
2022-09-21T02:37:43.761Z,99.90
2022-09-21T02:40:31.563Z,99.90
2022-09-21T02:43:31.437Z,99.90
2022-09-21T02:46:05.046Z,99.90
2022-09-21T02:48:57.588Z,99.90
2022-09-21T02:51:35.914Z,99.90
2022-09-21T02:54:06.368Z,99.90
2022-09-21T02:56:33.833Z,99.90
2022-09-21T02:59:05.708Z,99.90
2022-09-21T03:01:33.671Z,99.90
2022-09-21T03:04:08.809Z,99.90
2022-09-21T03:07:19.579Z,99.90
2022-09-21T03:09:46.633Z,99.90
2022-09-21T03:12:13.808Z,99.90
2022-09-21T03:14:40.548Z,99.90
2022-09-21T03:17:09.082Z,99.90
2022-09-21T03:19:38.492Z,99.90
2022-09-21T03:22:05.239Z,99.90
2022-09-21T03:24:47.217Z,99.90
2022-09-21T03:27:15.387Z,99.90
2022-09-21T03:29:42.287Z,99.90
2022-09-21T03:32:09.617Z,99.90
2022-09-21T03:34:36.473Z,99.90
2022-09-21T03:37:07.521Z,99.90
2022-09-21T03:39:35.009Z,99.90
2022-09-21T03:42:02.554Z,99.90
2022-09-21T03:44:29.707Z,99.90
2022-09-21T03:47:00.659Z,99.90
2022-09-21T03:49:31.047Z,99.90
2022-09-21T03:52:02.468Z,99.90
2022-09-21T03:54:29.280Z,99.90
2022-09-21T03:56:59.189Z,99.90
2022-09-21T03:59:25.925Z,99.90
2022-09-21T04:01:54.828Z,99.90
2022-09-21T04:04:21.716Z,99.90
2022-09-21T04:06:48.454Z,99.90
2022-09-21T04:09:15.392Z,99.90
2022-09-21T04:11:42.666Z,99.90
2022-09-21T04:14:12.944Z,99.90
2022-09-21T04:16:39.748Z,99.90
2022-09-21T04:19:07.076Z,99.90
2022-09-21T04:21:36.636Z,99.90
2022-09-21T04:24:04.885Z,99.90
2022-09-21T04:26:33.726Z,99.90
2022-09-21T04:29:01.034Z,99.90
2022-09-21T04:31:29.558Z,99.90
2022-09-21T04:33:57.855Z,99.90
2022-09-21T04:36:26.298Z,99.90
2022-09-21T04:38:53.064Z,99.90
2022-09-21T04:41:20.079Z,99.90
2022-09-21T04:43:48.780Z,99.90
2022-09-21T04:46:20.629Z,99.90
2022-09-21T04:48:48.841Z,99.90
2022-09-21T04:51:16.833Z,99.90
2022-09-21T04:53:44.861Z,99.90
2022-09-21T04:56:15.433Z,99.90
2022-09-21T04:58:42.622Z,99.90
2022-09-21T05:01:10.385Z,99.90
2022-09-21T05:03:39.604Z,99.90
2022-09-21T05:06:06.893Z,99.90
2022-09-21T05:08:52.681Z,99.90
2022-09-21T05:11:19.693Z,99.90
2022-09-21T05:13:49.594Z,99.90
2022-09-21T05:16:17.317Z,99.90
2022-09-21T05:18:44.741Z,99.90
2022-09-21T05:21:17.520Z,99.90
2022-09-21T05:23:44.349Z,99.90
2022-09-21T05:26:11.099Z,99.90
2022-09-21T05:28:40.192Z,99.90
2022-09-21T05:31:38.171Z,99.90
2022-09-21T05:34:20.157Z,99.90
2022-09-21T05:37:00.796Z,99.90
2022-09-21T05:39:28.064Z,99.90
2022-09-21T05:41:55.699Z,99.90
2022-09-21T05:44:23.089Z,99.90
2022-09-21T05:46:56.174Z,99.90
2022-09-21T05:49:46.590Z,99.90
2022-09-21T05:52:39.290Z,99.90
2022-09-21T05:55:25.264Z,99.90
2022-09-21T05:58:12.682Z,99.90
2022-09-21T06:00:48.220Z,99.90
2022-09-21T06:03:32.643Z,99.90
2022-09-21T06:05:59.630Z,99.90
2022-09-21T06:08:26.980Z,99.90
2022-09-21T06:10:54.853Z,99.90
2022-09-21T06:13:21.643Z,99.90
2022-09-21T06:15:48.377Z,99.90
2022-09-21T06:18:17.972Z,99.90
2022-09-21T06:20:45.892Z,99.90
2022-09-21T06:23:17.677Z,99.90
2022-09-21T06:25:44.508Z,99.90
2022-09-21T06:28:13.143Z,99.90
2022-09-21T06:30:42.356Z,99.90
2022-09-21T06:33:09.951Z,99.90
2022-09-21T06:35:37.220Z,99.90
2022-09-21T06:38:11.304Z,99.90
2022-09-21T06:40:38.213Z,99.90
2022-09-21T06:43:06.021Z,99.90
2022-09-21T06:45:35.581Z,99.90
2022-09-21T06:48:02.654Z,99.90
2022-09-21T06:50:29.414Z,99.90
2022-09-21T06:52:59.473Z,99.90
2022-09-21T06:55:28.380Z,99.90
2022-09-21T06:58:05.257Z,99.90
2022-09-21T07:00:32.925Z,99.90
2022-09-21T07:02:59.816Z,99.90
2022-09-21T07:05:26.847Z,99.90
2022-09-21T07:07:58.821Z,99.90
2022-09-21T07:10:26.483Z,99.90
2022-09-21T07:12:53.500Z,99.90
2022-09-21T07:15:21.346Z,99.90
2022-09-21T07:17:52.184Z,99.90
2022-09-21T07:20:20.044Z,99.90
2022-09-21T07:22:50.029Z,99.90
2022-09-21T07:25:16.840Z,99.90
2022-09-21T07:27:43.729Z,99.90
2022-09-21T07:30:14.050Z,99.90
2022-09-21T07:32:40.769Z,99.90
2022-09-21T07:35:07.929Z,99.90
2022-09-21T07:37:34.716Z,99.90
2022-09-21T07:40:05.982Z,99.90
2022-09-21T07:42:32.909Z,99.90
2022-09-21T07:45:06.658Z,99.90
2022-09-21T07:47:33.427Z,99.90
2022-09-21T07:50:00.169Z,99.90
2022-09-21T07:52:27.818Z,99.90
2022-09-21T07:54:54.671Z,99.90
2022-09-21T07:57:39.967Z,99.90
2022-09-21T08:00:10.193Z,99.90
2022-09-21T08:02:43.822Z,99.90
2022-09-21T08:05:13.565Z,99.90
2022-09-21T08:07:40.426Z,99.90
2022-09-21T08:10:10.881Z,99.90
2022-09-21T08:12:37.765Z,99.90
2022-09-21T08:15:20.372Z,99.90
2022-09-21T08:17:52.082Z,99.90
2022-09-21T08:20:19.001Z,99.90
2022-09-21T08:22:45.969Z,99.90
2022-09-21T08:25:12.761Z,99.90
2022-09-21T08:27:40.608Z,99.90
2022-09-21T08:30:10.529Z,99.90
2022-09-21T08:32:50.542Z,99.90
2022-09-21T08:35:21.279Z,99.90
2022-09-21T08:37:53.400Z,99.90
2022-09-21T08:40:20.819Z,99.90
2022-09-21T08:43:09.791Z,99.90
2022-09-21T08:45:42.099Z,99.90
2022-09-21T08:48:29.095Z,99.90
2022-09-21T08:51:05.791Z,99.90
2022-09-21T08:53:44.434Z,99.90
2022-09-21T08:56:15.400Z,99.90
2022-09-21T08:58:43.566Z,99.90
2022-09-21T09:01:25.219Z,99.90
2022-09-21T09:04:20.131Z,99.90
2022-09-21T09:07:00.757Z,99.90
2022-09-21T09:09:33.292Z,99.90
2022-09-21T09:12:11.265Z,99.90
2022-09-21T09:15:06.898Z,99.90
2022-09-21T09:17:45.798Z,99.90
2022-09-21T09:20:20.925Z,99.90
2022-09-21T09:22:58.390Z,99.90
2022-09-21T09:25:25.861Z,99.90
2022-09-21T09:27:56.254Z,99.90
2022-09-21T09:30:26.677Z,99.90
2022-09-21T09:33:06.372Z,99.90
2022-09-21T09:35:40.356Z,99.90
2022-09-21T09:38:13.385Z,99.90
2022-09-21T09:40:55.220Z,99.90
2022-09-21T09:43:59.471Z,99.90
2022-09-21T09:46:45.585Z,99.90
2022-09-21T09:49:31.533Z,99.90
2022-09-21T09:51:58.825Z,99.90
2022-09-21T09:54:28.241Z,99.90
2022-09-21T09:56:57.555Z,99.90
2022-09-21T09:59:33.353Z,99.90
2022-09-21T10:02:04.560Z,99.90
2022-09-21T10:04:34.817Z,99.90
2022-09-21T10:07:01.903Z,99.90
2022-09-21T10:09:35.510Z,99.90
2022-09-21T10:12:25.947Z,99.90
2022-09-21T10:14:56.279Z,99.90
2022-09-21T10:17:27.473Z,99.90
2022-09-21T10:20:08.041Z,99.90
2022-09-21T10:22:37.644Z,99.90
2022-09-21T10:25:06.205Z,99.90
2022-09-21T10:27:42.726Z,99.90
2022-09-21T10:30:29.506Z,99.90
2022-09-21T10:32:58.547Z,99.90
2022-09-21T10:35:28.284Z,99.90
2022-09-21T10:38:22.451Z,99.90
2022-09-21T10:40:50.677Z,99.90
2022-09-21T10:43:31.826Z,99.90
2022-09-21T10:46:01.378Z,99.90
2022-09-21T10:48:29.350Z,99.90
2022-09-21T10:50:57.521Z,99.90
2022-09-21T10:53:24.348Z,99.90
2022-09-21T10:56:19.481Z,99.90
2022-09-21T10:59:23.298Z,99.90
2022-09-21T11:01:56.679Z,99.90
2022-09-21T11:04:46.108Z,99.90
2022-09-21T11:07:48.579Z,99.90
2022-09-21T11:10:15.492Z,99.90
2022-09-21T11:13:04.304Z,99.90
2022-09-21T11:15:54.782Z,99.90
2022-09-21T11:18:47.121Z,98.20
2022-09-21T11:21:29.721Z,98.10
2022-09-21T11:24:41.114Z,98.40
2022-09-21T11:27:37.320Z,98.70
2022-09-21T11:30:15.133Z,99.80
2022-09-21T11:32:44.969Z,99.90
2022-09-21T11:35:17.560Z,99.90
2022-09-21T11:37:57.316Z,99.90
2022-09-21T11:40:48.903Z,99.90
2022-09-21T11:43:38.682Z,99.90
2022-09-21T11:46:08.422Z,99.90
2022-09-21T11:48:55.045Z,99.90
2022-09-21T11:51:40.797Z,99.90
2022-09-21T11:54:20.716Z,99.90
2022-09-21T11:56:57.504Z,99.90
2022-09-21T11:59:38.909Z,99.90
2022-09-21T12:02:18.051Z,99.90
2022-09-21T12:04:59.488Z,99.90
2022-09-21T12:07:53.959Z,99.90
2022-09-21T12:10:38.856Z,98.30
2022-09-21T12:13:24.885Z,97.70
2022-09-21T12:15:57.469Z,98.50
2022-09-21T12:19:04.616Z,96.50
2022-09-21T12:21:42.805Z,97.00
2022-09-21T12:24:22.457Z,96.90
2022-09-21T12:26:59.108Z,97.10
2022-09-21T12:29:46.724Z,97.60
2022-09-21T12:32:31.372Z,97.60
2022-09-21T12:35:03.591Z,97.50
2022-09-21T12:37:42.576Z,97.50
2022-09-21T12:40:15.776Z,97.80
2022-09-21T12:42:52.565Z,98.10
2022-09-21T12:45:46.278Z,98.00
2022-09-21T12:48:15.972Z,97.60
2022-09-21T12:50:58.956Z,97.50
2022-09-21T12:53:34.581Z,97.50
2022-09-21T12:56:37.560Z,97.50
2022-09-21T12:59:29.985Z,97.60
2022-09-21T13:02:06.031Z,97.70
2022-09-21T13:04:54.783Z,97.10
2022-09-21T13:07:30.228Z,97.80
2022-09-21T13:09:58.949Z,98.30
2022-09-21T13:12:39.800Z,98.40
2022-09-21T13:15:19.157Z,99.10
2022-09-21T13:17:46.111Z,98.90
2022-09-21T13:20:19.631Z,98.90
2022-09-21T13:22:51.024Z,99.50
2022-09-21T13:25:20.223Z,99.30
2022-09-21T13:28:09.197Z,99.10
2022-09-21T13:30:43.437Z,98.20
2022-09-21T13:33:19.780Z,98.00
2022-09-21T13:36:05.179Z,98.00
2022-09-21T13:38:37.357Z,97.20
2022-09-21T13:41:19.722Z,97.60
2022-09-21T13:44:05.141Z,97.70
2022-09-21T13:46:37.374Z,97.00
2022-09-21T13:49:10.825Z,97.20
2022-09-21T13:52:02.242Z,97.30
2022-09-21T13:54:45.338Z,98.50
2022-09-21T13:57:26.066Z,97.60
2022-09-21T14:00:32.250Z,97.70
2022-09-21T14:03:04.085Z,96.10
2022-09-21T14:05:45.251Z,97.00
2022-09-21T14:08:15.268Z,96.30
2022-09-21T14:10:57.085Z,96.30
2022-09-21T14:13:33.077Z,96.00
2022-09-21T14:16:26.447Z,96.10
2022-09-21T14:18:56.827Z,96.70
2022-09-21T14:21:23.980Z,97.00
2022-09-21T14:24:06.233Z,96.00
2022-09-21T14:27:03.839Z,96.20
2022-09-21T14:30:21.949Z,95.80
2022-09-21T14:33:02.435Z,96.00
2022-09-21T14:35:48.958Z,96.20
2022-09-21T14:38:54.483Z,96.50
2022-09-21T14:41:31.324Z,95.90
2022-09-21T14:43:59.057Z,96.00
2022-09-21T14:47:02.845Z,96.50
2022-09-21T14:50:09.666Z,96.30
2022-09-21T14:53:10.306Z,95.80
2022-09-21T14:55:43.159Z,95.30
2022-09-21T14:58:55.827Z,96.10
2022-09-21T15:01:31.821Z,95.90
2022-09-21T15:04:11.218Z,96.10
2022-09-21T15:07:06.130Z,97.20
2022-09-21T15:10:16.163Z,97.30
2022-09-21T15:13:19.704Z,96.40
2022-09-21T15:16:17.275Z,98.30
2022-09-21T15:18:49.314Z,98.50
2022-09-21T15:21:33.501Z,98.90
2022-09-21T15:24:17.309Z,97.50
2022-09-21T15:26:45.191Z,98.50
2022-09-21T15:29:28.717Z,97.90
2022-09-21T15:31:56.036Z,98.70
2022-09-21T15:34:26.666Z,98.10
2022-09-21T15:37:05.857Z,98.20
2022-09-21T15:39:35.237Z,99.50
2022-09-21T15:42:19.924Z,99.20
2022-09-21T15:44:51.017Z,98.50
2022-09-21T15:47:26.141Z,99.10
2022-09-21T15:49:53.909Z,99.40
2022-09-21T15:52:29.696Z,98.80
2022-09-21T15:55:00.704Z,98.70
2022-09-21T15:57:31.027Z,99.90
2022-09-21T15:59:58.067Z,99.90
2022-09-21T16:02:33.807Z,99.90
2022-09-21T16:05:00.824Z,99.90
2022-09-21T16:07:36.646Z,99.90
2022-09-21T16:10:37.297Z,99.90
2022-09-21T16:13:29.011Z,99.90
2022-09-21T16:16:22.173Z,99.90
2022-09-21T16:18:59.453Z,99.90
2022-09-21T16:21:39.490Z,99.90
2022-09-21T16:24:22.882Z,99.90
2022-09-21T16:27:01.758Z,99.90
2022-09-21T16:29:44.746Z,99.90
2022-09-21T16:32:17.520Z,99.90
2022-09-21T16:35:06.839Z,99.90
2022-09-21T16:37:36.424Z,99.90
2022-09-21T16:40:03.254Z,99.90
2022-09-21T16:42:34.401Z,99.90
2022-09-21T16:45:11.128Z,99.90
2022-09-21T16:47:38.529Z,99.90
2022-09-21T16:50:12.583Z,99.90
2022-09-21T16:52:39.344Z,99.90
2022-09-21T16:55:10.050Z,99.90
2022-09-21T16:57:38.111Z,99.90
2022-09-21T17:00:13.652Z,99.90
2022-09-21T17:02:42.799Z,99.90
2022-09-21T17:05:09.940Z,99.90
2022-09-21T17:07:36.637Z,99.90
2022-09-21T17:10:19.122Z,99.90
2022-09-21T17:12:46.086Z,99.90
2022-09-21T17:15:13.338Z,99.90
2022-09-21T17:17:40.165Z,99.90
2022-09-21T17:20:31.323Z,99.90
2022-09-21T17:22:58.725Z,99.90
2022-09-21T17:25:25.865Z,99.90
2022-09-21T17:27:55.171Z,99.90
2022-09-21T17:30:21.943Z,99.90
2022-09-21T17:32:49.304Z,99.90
2022-09-21T17:35:27.293Z,99.90
2022-09-21T17:37:54.284Z,99.90
2022-09-21T17:40:23.227Z,99.90
2022-09-21T17:42:56.346Z,99.90
2022-09-21T17:45:39.075Z,99.90
2022-09-21T17:48:12.563Z,99.90
2022-09-21T17:50:40.355Z,99.90
2022-09-21T17:53:28.375Z,99.90
2022-09-21T17:55:58.850Z,99.90
2022-09-21T17:58:57.941Z,99.90
2022-09-21T18:01:38.719Z,99.90
2022-09-21T18:04:08.239Z,99.90
2022-09-21T18:06:35.272Z,99.90
2022-09-21T18:09:03.684Z,99.90
2022-09-21T18:12:14.777Z,99.90
2022-09-21T18:14:49.873Z,99.90
2022-09-21T18:17:29.134Z,99.90
2022-09-21T18:20:34.209Z,99.90
2022-09-21T18:23:19.795Z,99.90
2022-09-21T18:25:49.999Z,99.90
2022-09-21T18:28:23.717Z,99.90
2022-09-21T18:31:07.701Z,99.90
2022-09-21T18:33:48.379Z,99.90
2022-09-21T18:36:15.392Z,99.90
2022-09-21T18:39:10.592Z,99.90
2022-09-21T18:41:48.095Z,99.90
2022-09-21T18:44:53.844Z,99.90
2022-09-21T18:47:29.540Z,99.90
2022-09-21T18:50:03.426Z,99.90
2022-09-21T18:53:13.983Z,99.90
2022-09-21T18:55:41.251Z,99.90
2022-09-21T18:58:10.400Z,99.90
2022-09-21T19:00:37.625Z,99.90
2022-09-21T19:03:17.830Z,99.90
2022-09-21T19:06:26.382Z,99.90
2022-09-21T19:09:24.250Z,99.90
2022-09-21T19:12:41.811Z,99.90
2022-09-21T19:15:55.997Z,99.90
2022-09-21T19:18:45.614Z,99.90
2022-09-21T19:21:38.429Z,99.90
2022-09-21T19:24:24.826Z,99.90
2022-09-21T19:27:14.505Z,99.90
2022-09-21T19:30:06.253Z,99.90
2022-09-21T19:32:48.195Z,99.90
2022-09-21T19:35:24.780Z,99.90
2022-09-21T19:38:01.155Z,99.90
2022-09-21T19:40:41.814Z,99.90
2022-09-21T19:43:36.789Z,99.90
2022-09-21T19:46:34.123Z,99.90
2022-09-21T19:49:23.350Z,99.90
2022-09-21T19:51:53.156Z,99.90
2022-09-21T19:54:43.995Z,99.90
2022-09-21T19:57:42.909Z,99.90
2022-09-21T20:00:16.684Z,99.90
2022-09-21T20:02:53.343Z,99.90
2022-09-21T20:05:23.445Z,99.90
2022-09-21T20:08:06.431Z,99.90
2022-09-21T20:10:44.345Z,99.90
2022-09-21T20:13:23.386Z,99.90
2022-09-21T20:15:52.782Z,99.90
2022-09-21T20:18:22.728Z,99.90
2022-09-21T20:20:52.830Z,99.90
2022-09-21T20:23:19.986Z,99.90
2022-09-21T20:25:55.890Z,99.90
2022-09-21T20:28:23.185Z,99.90
2022-09-21T20:30:50.485Z,99.90
2022-09-21T20:33:22.624Z,99.90
2022-09-21T20:35:50.829Z,99.90
2022-09-21T20:38:18.447Z,99.90
2022-09-21T20:40:45.603Z,99.90
2022-09-21T20:43:14.113Z,99.90
2022-09-21T20:45:41.054Z,99.90
2022-09-21T20:48:15.648Z,99.90
2022-09-21T20:50:44.448Z,99.90
2022-09-21T20:53:15.038Z,99.90
2022-09-21T20:55:43.739Z,99.90
2022-09-21T20:58:15.240Z,99.90
2022-09-21T21:00:45.172Z,99.90
2022-09-21T21:03:15.379Z,99.90
2022-09-21T21:05:42.307Z,99.90
2022-09-21T21:08:09.468Z,99.90
2022-09-21T21:10:39.446Z,99.90
2022-09-21T21:13:06.442Z,99.90
2022-09-21T21:15:40.993Z,99.90
2022-09-21T21:18:12.629Z,99.90
2022-09-21T21:20:44.862Z,99.90
2022-09-21T21:23:12.136Z,99.90
2022-09-21T21:25:38.881Z,99.90
2022-09-21T21:28:07.881Z,99.90
2022-09-21T21:30:34.842Z,99.90
2022-09-21T21:33:02.581Z,99.90
2022-09-21T21:35:33.048Z,99.90
2022-09-21T21:38:00.026Z,99.90
2022-09-21T21:40:26.925Z,99.90
2022-09-21T21:42:55.542Z,99.90
2022-09-21T21:45:22.292Z,99.90
2022-09-21T21:47:49.688Z,99.90
2022-09-21T21:50:16.654Z,99.90
2022-09-21T21:52:45.329Z,99.90
2022-09-21T21:55:12.230Z,99.90
2022-09-21T21:57:39.132Z,99.90
2022-09-21T22:00:12.359Z,99.90
2022-09-21T22:02:39.197Z,99.90
2022-09-21T22:05:09.517Z,99.90
2022-09-21T22:07:37.894Z,99.90
2022-09-21T22:10:09.219Z,99.90
2022-09-21T22:12:36.482Z,99.90
2022-09-21T22:15:03.869Z,99.90
2022-09-21T22:17:31.218Z,99.90
2022-09-21T22:19:58.476Z,99.90
2022-09-21T22:22:25.407Z,99.90
2022-09-21T22:24:54.625Z,99.90
2022-09-21T22:27:21.918Z,99.90
2022-09-21T22:29:48.877Z,99.90
2022-09-21T22:32:15.667Z,99.90
2022-09-21T22:34:51.415Z,99.90
2022-09-21T22:37:23.511Z,99.90
2022-09-21T22:39:50.348Z,99.90
2022-09-21T22:42:20.327Z,99.90
2022-09-21T22:44:47.210Z,99.90
2022-09-21T22:47:13.990Z,99.90
2022-09-21T22:49:43.716Z,99.90
2022-09-21T22:52:14.065Z,99.90
2022-09-21T22:54:43.599Z,99.90
2022-09-21T22:57:10.919Z,99.90
2022-09-21T22:59:38.181Z,99.90
2022-09-21T23:02:14.198Z,99.90
2022-09-21T23:04:41.396Z,99.90
2022-09-21T23:07:08.598Z,99.90
2022-09-21T23:09:35.743Z,99.90
2022-09-21T23:12:03.234Z,99.90
2022-09-21T23:14:30.506Z,99.90
2022-09-21T23:16:58.365Z,99.90
2022-09-21T23:19:25.528Z,99.90
2022-09-21T23:21:53.135Z,99.90
2022-09-21T23:24:20.693Z,99.90
2022-09-21T23:26:52.661Z,99.90
2022-09-21T23:29:22.198Z,99.90
2022-09-21T23:31:49.463Z,99.90
2022-09-21T23:34:16.960Z,99.90
2022-09-21T23:36:50.278Z,99.90
2022-09-21T23:39:17.460Z,99.90
2022-09-21T23:41:45.078Z,99.90
2022-09-21T23:44:12.863Z,99.90
2022-09-21T23:46:41.128Z,99.90
2022-09-21T23:49:11.748Z,99.90
2022-09-21T23:51:39.359Z,99.90
2022-09-21T23:54:07.265Z,99.90
2022-09-21T23:56:34.793Z,99.90
2022-09-21T23:59:06.804Z,99.90
